Terminal Aerodrome Forecast
Issued by NWS

Home | Current Version | Previous Version | Text Only | Print | Product List | Glossary On
Versions: 1 2 3 4 5 6 7 8 9 10 11 12 13 14 15 16 17 18 19 20 21 22 23 24
000
FTUS43 KDLH 292337
TAFHYR
TAF
KHYR 292337Z 3000/3024 00000KT P6SM SCT120
     FM300200 00000KT P6SM FEW050
     FM300600 04003KT 4SM BR SCT003 BKN015
     FM301300 03007KT P6SM SCT015=

USA.gov is the U.S. government's official web portal to all federal, state and local government web resources and services.